Latest Weather Observations for Geelong Racecourse

IDV60901

Issued at 8:25 am EST Saturday 2 August 2014 (issued every 10 minutes, with the page automatically refreshed every 10 minutes)

About weather observations | Map of Melbourne area stations | Latest observations for Melbourne area | Other Formats
Station Details ID: 087184 Name: GEELONG RACECOURSE Lat: -38.17 Lon: 144.38 Height: 12.9 m
Data from the previous 72 hours. | See also: Recent months at Geelong Racecourse
Date/Time
EST
Tmp

°C
App
Tmp
°C
Dew
Point
°C
Rel
Hum
%
Delta-T

°C
Wind Press
QNH
hPa
Press
MSL
hPa
Rain
since
9 am
mm
Dir
 
Spd
km/h
Gust
km/h
Spd
kts
Gust
kts
02/08:00am 3.4 -1.4 2.4 93 0.4 WNW 17 24 9 13 1028.7 1028.8 4.8
02/07:30am 3.1 -1.8 2.1 93 0.4 NW 17 24 9 13 1028.1 - 4.8
02/07:00am 3.4 -0.7 2.4 93 0.4 WNW 13 20 7 11 1027.7 1027.8 4.8
02/06:30am 4.3 1.1 3.3 93 0.4 NW 9 15 5 8 1027.0 - 4.8
02/06:00am 3.8 0.6 2.8 93 0.4 W 9 15 5 8 1027.0 1027.0 4.6
02/05:30am 3.0 -1.1 2.0 93 0.4 WNW 13 19 7 10 1026.3 - 4.6
02/05:00am 3.3 -1.2 2.3 93 0.4 NW 15 20 8 11 1025.7 1025.7 4.6
02/04:30am 3.9 -0.5 2.9 93 0.4 NW 15 20 8 11 1025.5 - 4.6
02/04:00am 4.8 2.1 3.6 92 0.5 WNW 7 9 4 5 1025.4 1025.4 4.6
02/03:30am 4.9 1.4 3.7 92 0.5 W 11 17 6 9 1025.0 - 4.4
02/03:00am 4.2 0.3 3.2 93 0.4 WNW 13 19 7 10 1025.0 1025.0 4.4
02/02:30am 3.9 -0.5 2.7 92 0.5 WNW 15 20 8 11 1024.6 - 4.4
02/02:00am 4.5 1.3 3.2 91 0.5 W 9 13 5 7 1024.4 1024.4 4.4
02/01:30am 5.4 0.7 3.4 87 0.8 W 17 28 9 15 1024.3 - 4.4
02/01:00am 5.8 2.0 3.8 87 0.8 W 13 26 7 14 1023.7 1023.7 4.2
02/12:30am 4.7 1.9 3.0 89 0.7 W 7 11 4 6 1023.2 - 4.2
02/12:00am 5.3 1.3 2.7 83 1.1 W 13 17 7 9 1022.9 1022.9 4.2
 
Date/Time
EST
Tmp

°C
App
Tmp
°C
Dew
Point
°C
Rel
Hum
%
Delta-T

°C
Wind Press
QNH
hPa
Press
MSL
hPa
Rain
since
9 am
mm
Dir
 
Spd
km/h
Gust
km/h
Spd
kts
Gust
kts
01/11:30pm 5.6 1.6 2.9 83 1.1 W 13 20 7 11 1022.5 - 4.2
01/11:00pm 5.1 1.1 3.0 86 0.9 W 13 22 7 12 1022.0 1022.0 4.0
01/10:30pm 5.5 0.9 3.5 87 0.8 WNW 17 28 9 15 1021.5 - 4.0
01/10:00pm 5.9 1.6 3.1 82 1.2 WNW 15 24 8 13 1020.8 1020.8 4.0
01/09:30pm 6.0 1.0 3.7 85 1.0 W 19 28 10 15 1020.1 - 3.8
01/09:00pm 5.5 2.2 4.3 92 0.5 W 11 20 6 11 1019.4 1019.4 3.6
01/08:30pm 5.7 2.8 4.5 92 0.5 NW 9 13 5 7 1019.1 - 3.4
01/08:00pm 6.0 3.1 4.8 92 0.5 W 9 17 5 9 1018.7 1018.7 2.8
01/07:30pm 6.0 3.1 4.6 91 0.6 WNW 9 11 5 6 1017.8 - 2.4
01/07:00pm 6.4 1.3 3.9 84 1.1 W 20 32 11 17 1016.8 1016.8 2.0
01/06:30pm 6.1 1.0 4.3 88 0.8 W 20 30 11 16 1015.8 - 1.8
01/06:00pm 6.1 2.4 4.6 90 0.6 W 13 19 7 10 1015.4 1015.4 1.6
01/05:30pm 5.9 1.1 4.7 92 0.5 WSW 19 26 10 14 1014.7 - 1.2
01/05:03pm 6.7 0.1 4.2 84 1.1 WSW 28 50 15 27 1013.9 - 1.0
01/05:00pm 6.9 1.5 4.4 84 1.1 W 22 44 12 24 1013.7 1013.7 1.0
01/04:30pm 6.6 -0.2 3.2 79 1.4 SW 28 43 15 23 1012.6 - 0.8
01/04:00pm 7.5 1.4 2.6 71 2.0 WSW 24 33 13 18 1011.5 1011.5 0.8
01/03:30pm 10.1 2.8 2.5 59 3.2 WSW 30 52 16 28 1010.5 - 0.8
01/03:00pm 9.5 4.3 3.5 66 2.6 W 20 33 11 18 1009.4 1009.4 0.8
01/02:30pm 8.8 2.5 3.6 70 2.2 W 26 44 14 24 1008.9 - 0.8
01/02:15pm 9.1 2.3 3.3 67 2.5 W 28 48 15 26 1008.2 - 0.8
01/02:00pm 10.3 5.1 5.3 71 2.3 WNW 22 35 12 19 1007.7 1007.7 0.8
01/01:30pm 8.8 3.0 4.6 75 1.9 WNW 24 33 13 18 1007.3 - 0.8
01/01:00pm 8.9 2.7 4.5 74 1.9 W 26 41 14 22 1006.7 1006.7 0.8
01/12:30pm 8.8 2.8 5.4 79 1.5 W 26 43 14 23 1006.2 - 0.8
01/12:00pm 6.8 1.2 5.3 90 0.7 WNW 24 37 13 20 1005.7 1005.7 0.6
01/11:33am 6.0 -0.9 4.8 92 0.5 WNW 30 50 16 27 1005.2 - 0.6
01/11:30am 6.1 -1.2 4.7 91 0.6 WNW 32 50 17 27 1005.2 - 0.6
01/11:00am 5.0 -3.8 3.8 92 0.5 WNW 39 59 21 32 1004.8 1004.8 0.4
01/10:30am 7.5 -0.5 3.7 77 1.6 WNW 35 56 19 30 1004.0 - 0.0
01/10:00am 7.1 -1.0 3.2 76 1.7 WNW 35 67 19 36 1002.7 1002.7 0.0
01/09:42am 8.0 0.3 3.3 72 2.0 WNW 33 69 18 37 1002.2 - 0.0
01/09:34am 8.0 1.1 2.5 68 2.3 WNW 28 50 15 27 1002.7 - 0.0
01/09:30am 8.0 1.9 2.7 69 2.2 WNW 24 39 13 21 1003.0 - 0.0
01/09:26am 7.7 1.2 2.6 70 2.1 WNW 26 48 14 26 1002.9 - 0.0
01/09:00am 7.2 -1.8 2.3 71 2.0 NW 39 57 21 31 1000.9 1000.9 9.6
01/08:34am 6.4 -3.0 2.5 76 1.6 NW 41 59 22 32 1001.0 - 9.6
01/08:30am 6.3 -3.5 2.4 76 1.6 NW 43 61 23 33 1001.2 - 9.6
01/08:23am 6.2 -2.4 2.5 77 1.5 NW 37 61 20 33 1001.3 - 9.6
01/08:00am 5.7 -2.2 2.4 79 1.4 NW 33 50 18 27 1001.1 1001.1 9.6
01/07:33am 5.8 -1.8 2.6 80 1.3 WNW 32 52 17 28 1001.7 - 9.4
01/07:30am 5.8 -1.8 2.6 80 1.3 WNW 32 48 17 26 1001.8 - 9.4
01/07:15am 6.2 -0.8 1.7 73 1.8 WNW 28 52 15 28 1001.6 - 9.4
01/07:00am 6.2 -1.2 1.7 73 1.8 NW 30 43 16 23 1001.4 1001.4 9.4
01/06:49am 6.2 -0.8 1.7 73 1.8 NW 28 46 15 25 1000.9 - 9.4
01/06:30am 6.0 -0.7 1.7 74 1.7 NW 26 37 14 20 1000.4 - 9.4
01/06:00am 6.0 -0.7 1.5 73 1.8 NW 26 37 14 20 999.9 999.9 9.4
01/05:30am 6.1 -1.0 1.6 73 1.8 NW 28 43 15 23 999.6 - 9.4
01/05:00am 5.8 -1.2 1.9 76 1.6 NW 28 43 15 23 1000.5 1000.5 9.4
01/04:30am 5.9 -1.9 2.0 76 1.6 NW 32 46 17 25 1000.2 - 9.4
01/04:00am 6.0 -1.7 2.1 76 1.6 WNW 32 50 17 27 1000.1 1000.1 9.4
01/03:30am 6.8 -3.1 1.7 70 2.1 WNW 43 63 23 34 999.7 - 9.4
01/03:01am 6.5 -1.9 1.8 72 1.9 NW 35 54 19 29 999.6 - 9.4
01/03:00am 6.5 -1.9 1.8 72 1.9 NW 35 50 19 27 999.6 999.6 9.4
01/02:30am 6.8 -2.3 1.7 70 2.1 WNW 39 59 21 32 999.6 - 9.4
01/02:00am 6.8 -2.3 1.9 71 2.0 NW 39 61 21 33 999.2 999.2 9.4
01/01:30am 6.9 -2.6 2.0 71 2.0 NW 41 61 22 33 999.0 - 9.4
01/01:27am 6.8 -2.3 2.1 72 1.9 NW 39 59 21 32 999.1 - 9.4
01/01:00am 6.3 -2.4 2.2 75 1.7 NW 37 50 20 27 999.5 999.5 9.4
01/12:30am 6.5 -2.6 2.0 73 1.8 NW 39 52 21 28 1000.1 - 9.4
01/12:01am 6.4 -0.9 2.3 75 1.7 NW 30 48 16 26 1000.6 - 9.4
01/12:00am 6.5 -0.8 2.4 75 1.7 NW 30 41 16 22 1000.7 1000.7 9.4
 
Date/Time
EST
Tmp

°C
App
Tmp
°C
Dew
Point
°C
Rel
Hum
%
Delta-T

°C
Wind Press
QNH
hPa
Press
MSL
hPa
Rain
since
9 am
mm
Dir
 
Spd
km/h
Gust
km/h
Spd
kts
Gust
kts
31/11:30pm 6.8 -1.1 2.3 73 1.8 NW 33 48 18 26 1000.6 - 9.4
31/11:00pm 7.4 -0.9 2.1 69 2.2 NW 35 54 19 29 1000.7 1000.7 9.4
31/10:59pm 7.4 -0.9 2.1 69 2.2 NW 35 54 19 29 1000.8 - 9.4
31/10:55pm 7.5 -1.5 2.2 69 2.2 NW 39 54 21 29 1000.7 - 9.4
31/10:30pm 7.4 2.3 3.1 74 1.8 WNW 19 30 10 16 1001.6 - 9.4
31/10:00pm 7.2 2.1 3.3 76 1.7 WNW 19 32 10 17 1001.3 1001.3 9.4
31/09:30pm 7.6 1.9 2.7 71 2.0 NW 22 33 12 18 1000.8 - 9.4
31/09:00pm 7.8 2.1 3.1 72 2.0 NW 22 33 12 18 999.9 999.9 9.4
31/08:30pm 7.9 3.3 3.9 76 1.7 WNW 17 28 9 15 1000.6 - 9.4
31/08:00pm 8.0 3.0 4.6 79 1.5 WNW 20 33 11 18 1000.2 1000.2 9.4
31/07:30pm 8.2 1.6 4.0 75 1.8 WNW 28 46 15 25 999.6 - 9.4
31/07:00pm 8.1 2.8 5.0 81 1.4 NW 22 37 12 20 999.4 999.4 9.4
31/06:30pm 7.9 2.3 5.2 83 1.2 NW 24 35 13 19 998.8 - 9.4
31/06:00pm 7.5 2.8 6.1 91 0.6 NW 20 32 11 17 998.3 998.3 9.2
31/05:30pm 7.3 2.8 6.1 92 0.5 WNW 19 32 10 17 998.6 - 8.6
31/05:00pm 7.1 1.6 6.0 93 0.5 WNW 24 39 13 21 998.5 998.5 7.8
31/04:30pm 7.1 1.2 5.9 92 0.5 WNW 26 39 14 21 998.5 - 6.8
31/04:00pm 7.2 1.0 6.0 92 0.5 W 28 46 15 25 998.3 998.3 6.0
31/03:30pm 7.8 1.3 6.6 92 0.6 W 30 50 16 27 997.6 - 5.2
31/03:00pm 8.3 2.0 7.2 93 0.5 W 30 50 16 27 997.1 997.1 4.6
31/02:30pm 8.6 0.6 7.4 92 0.6 W 39 59 21 32 996.6 - 3.6
31/02:01pm 10.0 3.7 8.9 93 0.5 W 32 54 17 29 994.9 - 2.0
31/02:00pm 10.0 3.7 8.9 93 0.5 W 32 50 17 27 994.8 994.8 1.8
31/01:47pm 10.0 2.7 8.9 93 0.5 W 37 54 20 29 994.4 - 1.0
31/01:34pm 15.0 5.9 6.6 57 4.1 W 44 65 24 35 993.9 - 0.0
31/01:33pm 17.0 8.9 6.8 51 5.0 W 39 54 21 29 993.5 - 0.0
31/01:30pm 17.1 8.0 6.6 50 5.2 NW 44 82 24 44 992.6 - 0.0
31/01:00pm 17.6 7.7 6.5 48 5.5 NW 48 69 26 37 992.4 992.4 0.0
31/12:30pm 17.5 8.3 6.4 48 5.5 NW 44 67 24 36 993.0 - 0.0
31/12:00pm 17.1 8.1 6.3 49 5.3 NW 43 70 23 38 994.2 994.2 0.0
31/11:30am 16.7 7.5 6.5 51 5.0 NNW 44 72 24 39 994.4 - 0.0
31/11:00am 16.2 7.1 6.6 53 4.7 NNW 44 65 24 35 995.3 995.3 0.0
31/10:30am 15.8 6.6 6.3 53 4.6 NNW 44 67 24 36 996.1 - 0.0
31/10:00am 15.5 6.5 6.2 54 4.5 NW 43 70 23 38 996.4 996.4 0.0
31/09:30am 15.3 6.1 6.3 55 4.4 NNW 44 70 24 38 996.8 - 0.0
31/09:00am 14.9 5.8 6.7 58 4.0 NNW 44 70 24 38 997.2 997.2 0.0
31/08:30am 14.8 5.8 6.6 58 4.0 NNW 43 63 23 34 997.6 - 0.0
31/08:00am 14.2 5.7 6.8 61 3.6 NNW 41 59 22 32 998.3 998.3 0.0
31/07:30am 14.0 6.6 6.8 62 3.5 NW 35 56 19 30 998.9 - 0.0
31/07:00am 14.0 6.6 6.8 62 3.5 NNW 35 54 19 29 999.3 999.3 0.0
31/06:57am 13.8 6.8 6.7 62 3.4 NNW 33 52 18 28 999.4 - 0.0
31/06:30am 14.2 6.8 6.8 61 3.6 NNW 35 50 19 27 999.4 - 0.0
31/06:00am 14.1 7.3 6.9 62 3.5 NNW 32 50 17 27 999.7 999.7 0.0
31/05:34am 14.6 6.0 6.7 59 3.8 NNW 41 59 22 32 1000.0 - 0.0
31/05:30am 14.6 6.4 6.7 59 3.8 NNW 39 56 21 30 1000.1 - 0.0
31/05:02am 14.5 7.1 6.6 59 3.8 NNW 35 56 19 30 1000.4 - 0.0
31/05:00am 14.6 6.7 6.4 58 4.0 NNW 37 56 20 30 1000.4 1000.4 0.0
31/04:30am 14.8 7.2 5.6 54 4.4 NNW 35 54 19 29 1001.0 - 0.0
31/04:07am 14.7 7.1 6.0 56 4.2 NNW 35 57 19 31 1001.2 - 0.0
31/04:00am 14.8 6.5 5.9 55 4.3 NNW 39 54 21 29 1001.4 1001.4 0.0
31/03:40am 14.5 7.4 6.6 59 3.8 NNW 33 52 18 28 1001.9 - 0.0
31/03:30am 14.2 8.2 7.0 62 3.5 NNW 28 43 15 23 1002.3 - 0.0
31/03:00am 14.6 8.0 7.6 63 3.5 NNW 32 48 17 26 1002.8 1002.8 0.0
31/02:30am 14.9 7.3 7.5 61 3.7 NNW 37 67 20 36 1003.0 - 0.0
31/02:03am 14.7 8.8 7.3 61 3.6 NNW 28 50 15 27 1003.5 - 0.0
31/02:00am 14.4 8.8 7.0 61 3.6 NNW 26 43 14 23 1003.8 1003.8 0.0
31/01:35am 14.7 8.2 6.5 58 4.0 NNW 30 50 16 27 1004.0 - 0.0
31/01:30am 14.7 8.2 6.5 58 4.0 NNW 30 44 16 24 1004.2 - 0.0
31/01:00am 14.5 8.5 7.1 61 3.6 NNW 28 41 15 22 1004.8 1004.8 0.0
31/12:30am 14.8 10.2 8.1 64 3.4 N 22 35 12 19 1004.9 - 0.0
31/12:00am 15.1 9.7 8.1 63 3.5 NNW 26 41 14 22 1005.8 1005.8 0.0
 
Date/Time
EST
Tmp

°C
App
Tmp
°C
Dew
Point
°C
Rel
Hum
%
Delta-T

°C
Wind Press
QNH
hPa
Press
MSL
hPa
Rain
since
9 am
mm
Dir
 
Spd
km/h
Gust
km/h
Spd
kts
Gust
kts
30/11:30pm 14.9 9.2 8.4 65 3.3 NNW 28 43 15 23 1006.4 - 0.0
30/11:00pm 15.3 9.5 8.1 62 3.6 NNW 28 46 15 25 1006.9 1006.9 0.0
30/10:56pm 15.2 9.4 8.0 62 3.6 NNW 28 46 15 25 1006.9 - 0.0
30/10:30pm 15.2 8.9 7.5 60 3.8 NW 30 48 16 26 1007.0 - 0.0
30/10:03pm 15.4 8.8 7.7 60 3.8 NNW 32 50 17 27 1006.9 - 0.0
30/10:00pm 15.3 9.5 7.8 61 3.8 NNW 28 44 15 24 1006.9 1006.9 0.0
30/09:37pm 15.4 8.9 8.2 62 3.6 NNW 32 54 17 29 1006.9 - 0.0
30/09:30pm 15.4 10.0 8.2 62 3.6 NNW 26 39 14 21 1007.2 - 0.0
30/09:00pm 15.0 10.9 8.0 63 3.5 NNW 19 37 10 20 1007.6 1007.6 0.0
30/08:30pm 15.3 10.9 8.8 65 3.3 NNW 22 35 12 19 1007.8 - 0.0
30/08:00pm 15.1 11.3 9.2 68 3.0 NNW 19 32 10 17 1008.2 1008.2 0.0
30/07:30pm 14.6 11.7 9.6 72 2.6 N 15 22 8 12 1008.1 - 0.0
30/07:00pm 15.2 12.3 9.8 70 2.8 N 15 22 8 12 1008.3 1008.3 0.0
30/06:30pm 15.3 13.2 9.9 70 2.8 N 11 17 6 9 1008.4 - 0.0
30/06:00pm 15.7 13.2 9.8 68 3.1 N 13 22 7 12 1008.1 1008.1 0.0
30/05:30pm 16.2 13.2 9.4 64 3.5 NNW 15 24 8 13 1008.3 - 0.0
30/05:00pm 16.8 12.8 9.2 61 3.9 NNW 20 32 11 17 1008.1 1008.1 0.0
30/04:30pm 17.5 12.6 9.9 61 4.0 NNW 26 41 14 22 1008.2 - 0.0
30/04:00pm 17.6 13.0 9.8 60 4.1 NW 24 39 13 21 1008.1 1008.1 0.0
30/03:30pm 16.9 12.2 10.5 66 3.4 NW 26 35 14 19 1008.3 - 0.0
30/03:00pm 16.4 12.6 12.4 77 2.2 NW 24 35 13 19 1008.7 1008.7 0.0
30/02:30pm 16.2 11.5 12.0 76 2.3 NW 28 48 15 26 1008.4 - 0.0
30/02:00pm 16.1 13.2 12.8 81 1.8 NNW 20 33 11 18 1008.4 1008.4 0.0
30/01:30pm 16.3 11.6 12.1 76 2.3 NNW 28 41 15 22 1008.8 - 0.0
30/01:00pm 16.0 11.6 11.8 76 2.3 WNW 26 44 14 24 1009.7 1009.7 0.0
30/12:30pm 15.5 12.3 11.3 76 2.3 WNW 19 28 10 15 1010.0 - 0.0
30/12:00pm 16.2 11.8 10.5 69 3.0 NW 24 35 13 19 1010.4 1010.4 0.0
30/11:30am 16.1 10.1 10.2 68 3.1 NW 32 50 17 27 1010.6 - 0.0
30/11:00am 15.7 12.1 10.5 71 2.8 NW 20 32 11 17 1011.1 1011.1 0.0
30/10:30am 15.4 11.8 10.6 73 2.5 NW 20 33 11 18 1011.3 - 0.0
30/10:00am 14.9 11.3 10.7 76 2.2 NW 20 35 11 19 1011.4 1011.4 0.0
30/09:30am 14.2 11.0 9.8 75 2.3 NW 17 24 9 13 1011.7 - 0.0
30/09:00am 13.8 9.6 9.6 76 2.2 NNW 22 35 12 19 1011.3 1011.3 2.6
30/08:30am 12.6 9.6 9.2 80 1.7 NNW 15 24 8 13 1011.1 - 2.6

Latest Capital City Observations: Canberra | Sydney | Melbourne | Brisbane | Adelaide | Perth | Hobart | Darwin

Other Formats:

Comma delimited format used in spreadsheet applications
http://www.bom.gov.au/fwo/IDV60901/IDV60901.94857.axf

JavaScript Object Notation format (JSON) in row-major order
http://www.bom.gov.au/fwo/IDV60901/IDV60901.94857.json